sensor_id;sensor_type;location;lat;lon;timestamp;temperature;humidity
15384;DHT22;7790;53.022;12.968;2024-03-08T00:01:31;22.80;38.90
15384;DHT22;7790;53.022;12.968;2024-03-08T00:05:32;22.70;38.90
15384;DHT22;7790;53.022;12.968;2024-03-08T00:09:34;22.80;38.90
15384;DHT22;7790;53.022;12.968;2024-03-08T00:13:34;22.80;38.90
15384;DHT22;7790;53.022;12.968;2024-03-08T00:17:35;22.80;38.90
15384;DHT22;7790;53.022;12.968;2024-03-08T00:21:36;22.80;38.90
15384;DHT22;7790;53.022;12.968;2024-03-08T00:25:37;22.80;38.80
15384;DHT22;7790;53.022;12.968;2024-03-08T00:29:39;22.80;38.80
15384;DHT22;7790;53.022;12.968;2024-03-08T00:33:40;22.80;38.80
15384;DHT22;7790;53.022;12.968;2024-03-08T00:37:41;22.80;38.70
15384;DHT22;7790;53.022;12.968;2024-03-08T00:41:47;22.80;38.70
15384;DHT22;7790;53.022;12.968;2024-03-08T00:45:48;22.80;38.70
15384;DHT22;7790;53.022;12.968;2024-03-08T00:49:49;22.80;38.70
15384;DHT22;7790;53.022;12.968;2024-03-08T00:53:49;22.80;38.70
15384;DHT22;7790;53.022;12.968;2024-03-08T00:57:50;22.80;38.70
15384;DHT22;7790;53.022;12.968;2024-03-08T01:01:51;22.80;38.70
15384;DHT22;7790;53.022;12.968;2024-03-08T01:05:52;22.70;38.70
15384;DHT22;7790;53.022;12.968;2024-03-08T01:09:52;22.80;38.70
15384;DHT22;7790;53.022;12.968;2024-03-08T01:13:54;22.80;38.70
15384;DHT22;7790;53.022;12.968;2024-03-08T01:17:54;22.80;38.60
15384;DHT22;7790;53.022;12.968;2024-03-08T01:21:55;22.70;38.70
15384;DHT22;7790;53.022;12.968;2024-03-08T01:25:57;22.70;38.70
15384;DHT22;7790;53.022;12.968;2024-03-08T01:29:58;22.70;38.70
15384;DHT22;7790;53.022;12.968;2024-03-08T01:34:00;22.70;38.70
15384;DHT22;7790;53.022;12.968;2024-03-08T01:38:00;22.70;38.60
15384;DHT22;7790;53.022;12.968;2024-03-08T01:42:01;22.70;38.60
15384;DHT22;7790;53.022;12.968;2024-03-08T01:46:03;22.70;38.50
15384;DHT22;7790;53.022;12.968;2024-03-08T01:50:04;22.70;38.50
15384;DHT22;7790;53.022;12.968;2024-03-08T01:54:07;22.70;38.40
15384;DHT22;7790;53.022;12.968;2024-03-08T01:58:11;22.70;38.50
15384;DHT22;7790;53.022;12.968;2024-03-08T02:02:13;22.70;38.40
15384;DHT22;7790;53.022;12.968;2024-03-08T02:06:15;22.70;38.50
15384;DHT22;7790;53.022;12.968;2024-03-08T02:10:17;22.70;38.40
15384;DHT22;7790;53.022;12.968;2024-03-08T02:14:18;22.70;38.40
15384;DHT22;7790;53.022;12.968;2024-03-08T02:18:19;22.70;38.50
15384;DHT22;7790;53.022;12.968;2024-03-08T02:22:20;22.70;38.40
15384;DHT22;7790;53.022;12.968;2024-03-08T02:26:21;22.70;38.40
15384;DHT22;7790;53.022;12.968;2024-03-08T02:30:23;22.70;38.40
15384;DHT22;7790;53.022;12.968;2024-03-08T02:34:24;22.80;38.30
15384;DHT22;7790;53.022;12.968;2024-03-08T02:38:24;22.80;38.20
15384;DHT22;7790;53.022;12.968;2024-03-08T02:42:25;22.80;38.20
15384;DHT22;7790;53.022;12.968;2024-03-08T02:46:26;22.70;38.30
15384;DHT22;7790;53.022;12.968;2024-03-08T02:50:27;22.70;38.40
15384;DHT22;7790;53.022;12.968;2024-03-08T02:54:29;22.60;38.60
15384;DHT22;7790;53.022;12.968;2024-03-08T02:58:29;22.60;39.40
15384;DHT22;7790;53.022;12.968;2024-03-08T03:02:30;22.50;39.60
15384;DHT22;7790;53.022;12.968;2024-03-08T03:06:31;22.50;39.30
15384;DHT22;7790;53.022;12.968;2024-03-08T03:10:32;22.50;39.20
15384;DHT22;7790;53.022;12.968;2024-03-08T03:14:33;22.70;38.70
15384;DHT22;7790;53.022;12.968;2024-03-08T03:18:36;22.70;38.60
15384;DHT22;7790;53.022;12.968;2024-03-08T03:22:37;22.80;38.40
15384;DHT22;7790;53.022;12.968;2024-03-08T03:26:39;22.80;38.30
15384;DHT22;7790;53.022;12.968;2024-03-08T03:30:41;22.90;38.20
15384;DHT22;7790;53.022;12.968;2024-03-08T03:34:42;22.90;38.10
15384;DHT22;7790;53.022;12.968;2024-03-08T03:38:44;22.90;38.10
15384;DHT22;7790;53.022;12.968;2024-03-08T03:42:45;22.90;38.10
15384;DHT22;7790;53.022;12.968;2024-03-08T03:46:46;22.90;38.00
15384;DHT22;7790;53.022;12.968;2024-03-08T03:50:47;22.90;37.90
15384;DHT22;7790;53.022;12.968;2024-03-08T03:54:47;22.90;38.50
15384;DHT22;7790;53.022;12.968;2024-03-08T03:58:49;22.90;37.90
15384;DHT22;7790;53.022;12.968;2024-03-08T04:02:50;22.90;38.00
15384;DHT22;7790;53.022;12.968;2024-03-08T04:06:51;23.00;38.40
15384;DHT22;7790;53.022;12.968;2024-03-08T04:10:52;23.60;37.70
15384;DHT22;7790;53.022;12.968;2024-03-08T04:14:53;23.80;37.10
15384;DHT22;7790;53.022;12.968;2024-03-08T04:18:56;23.90;36.80
15384;DHT22;7790;53.022;12.968;2024-03-08T04:22:56;23.90;36.70
15384;DHT22;7790;53.022;12.968;2024-03-08T04:26:58;23.90;36.90
15384;DHT22;7790;53.022;12.968;2024-03-08T04:31:00;23.90;36.60
15384;DHT22;7790;53.022;12.968;2024-03-08T04:35:04;23.90;36.60
15384;DHT22;7790;53.022;12.968;2024-03-08T04:39:04;23.90;36.50
15384;DHT22;7790;53.022;12.968;2024-03-08T04:43:05;23.90;36.30
15384;DHT22;7790;53.022;12.968;2024-03-08T04:47:07;23.90;36.20
15384;DHT22;7790;53.022;12.968;2024-03-08T04:51:08;23.90;35.90
15384;DHT22;7790;53.022;12.968;2024-03-08T04:55:09;23.90;35.90
15384;DHT22;7790;53.022;12.968;2024-03-08T04:59:10;23.90;35.90
15384;DHT22;7790;53.022;12.968;2024-03-08T05:03:10;23.80;35.80
15384;DHT22;7790;53.022;12.968;2024-03-08T05:07:11;23.90;36.10
15384;DHT22;7790;53.022;12.968;2024-03-08T05:11:12;23.90;36.10
15384;DHT22;7790;53.022;12.968;2024-03-08T05:15:15;23.90;36.20
15384;DHT22;7790;53.022;12.968;2024-03-08T05:19:20;23.90;36.40
15384;DHT22;7790;53.022;12.968;2024-03-08T05:23:21;23.90;36.40
15384;DHT22;7790;53.022;12.968;2024-03-08T05:27:22;23.90;36.60
15384;DHT22;7790;53.022;12.968;2024-03-08T05:31:23;23.90;36.50
15384;DHT22;7790;53.022;12.968;2024-03-08T05:35:24;23.90;36.40
15384;DHT22;7790;53.022;12.968;2024-03-08T05:39:25;23.50;35.80
15384;DHT22;7790;53.022;12.968;2024-03-08T05:43:26;23.00;36.80
15384;DHT22;7790;53.022;12.968;2024-03-08T05:47:26;22.90;37.20
15384;DHT22;7790;53.022;12.968;2024-03-08T05:51:27;22.90;37.10
15384;DHT22;7790;53.022;12.968;2024-03-08T05:55:28;22.90;37.10
15384;DHT22;7790;53.022;12.968;2024-03-08T05:59:30;22.90;37.10
15384;DHT22;7790;53.022;12.968;2024-03-08T06:03:31;22.90;37.00
15384;DHT22;7790;53.022;12.968;2024-03-08T06:07:31;22.90;36.90
15384;DHT22;7790;53.022;12.968;2024-03-08T06:11:33;22.90;36.90
15384;DHT22;7790;53.022;12.968;2024-03-08T06:15:34;22.90;36.80
15384;DHT22;7790;53.022;12.968;2024-03-08T06:19:35;22.80;36.90
15384;DHT22;7790;53.022;12.968;2024-03-08T06:23:36;22.80;37.00
15384;DHT22;7790;53.022;12.968;2024-03-08T06:27:43;22.80;37.00
15384;DHT22;7790;53.022;12.968;2024-03-08T06:31:44;22.80;37.00
15384;DHT22;7790;53.022;12.968;2024-03-08T06:35:45;22.80;36.90
15384;DHT22;7790;53.022;12.968;2024-03-08T06:39:45;22.80;36.90
15384;DHT22;7790;53.022;12.968;2024-03-08T06:43:47;22.70;36.90
15384;DHT22;7790;53.022;12.968;2024-03-08T06:47:50;22.70;36.90
15384;DHT22;7790;53.022;12.968;2024-03-08T06:51:50;22.70;36.80
15384;DHT22;7790;53.022;12.968;2024-03-08T06:55:51;22.70;36.80
15384;DHT22;7790;53.022;12.968;2024-03-08T06:59:52;22.70;36.70
15384;DHT22;7790;53.022;12.968;2024-03-08T07:03:53;22.80;36.80
15384;DHT22;7790;53.022;12.968;2024-03-08T07:07:54;22.80;36.70
15384;DHT22;7790;53.022;12.968;2024-03-08T07:11:55;22.80;36.70
15384;DHT22;7790;53.022;12.968;2024-03-08T07:15:56;22.80;36.60
15384;DHT22;7790;53.022;12.968;2024-03-08T07:19:57;22.80;36.60
15384;DHT22;7790;53.022;12.968;2024-03-08T07:24:00;22.80;36.70
15384;DHT22;7790;53.022;12.968;2024-03-08T07:28:00;22.80;36.60
15384;DHT22;7790;53.022;12.968;2024-03-08T07:32:01;22.80;36.60
15384;DHT22;7790;53.022;12.968;2024-03-08T07:36:21;22.80;36.60
15384;DHT22;7790;53.022;12.968;2024-03-08T07:40:22;22.80;36.60
15384;DHT22;7790;53.022;12.968;2024-03-08T07:44:23;22.80;36.60
15384;DHT22;7790;53.022;12.968;2024-03-08T07:48:24;22.80;36.70
15384;DHT22;7790;53.022;12.968;2024-03-08T07:52:26;22.70;36.80
15384;DHT22;7790;53.022;12.968;2024-03-08T07:56:27;22.70;36.80
15384;DHT22;7790;53.022;12.968;2024-03-08T08:00:28;22.80;36.70
15384;DHT22;7790;53.022;12.968;2024-03-08T08:04:29;22.90;36.70
15384;DHT22;7790;53.022;12.968;2024-03-08T08:08:29;22.90;37.00
15384;DHT22;7790;53.022;12.968;2024-03-08T08:12:33;23.00;36.90
15384;DHT22;7790;53.022;12.968;2024-03-08T08:16:37;23.10;36.90
15384;DHT22;7790;53.022;12.968;2024-03-08T08:20:38;23.10;37.00
15384;DHT22;7790;53.022;12.968;2024-03-08T08:24:42;23.10;36.90
15384;DHT22;7790;53.022;12.968;2024-03-08T08:28:43;23.20;37.00
15384;DHT22;7790;53.022;12.968;2024-03-08T08:32:43;23.20;37.00
15384;DHT22;7790;53.022;12.968;2024-03-08T08:36:45;23.40;37.00
15384;DHT22;7790;53.022;12.968;2024-03-08T08:40:45;23.20;37.00
15384;DHT22;7790;53.022;12.968;2024-03-08T08:44:47;23.00;37.30
15384;DHT22;7790;53.022;12.968;2024-03-08T08:48:50;23.00;37.30
15384;DHT22;7790;53.022;12.968;2024-03-08T08:52:51;23.00;37.40
15384;DHT22;7790;53.022;12.968;2024-03-08T08:56:52;23.00;37.30
15384;DHT22;7790;53.022;12.968;2024-03-08T09:00:54;23.00;37.50
15384;DHT22;7790;53.022;12.968;2024-03-08T09:04:55;23.00;37.50
15384;DHT22;7790;53.022;12.968;2024-03-08T09:08:56;23.00;37.50
15384;DHT22;7790;53.022;12.968;2024-03-08T09:12:56;22.90;37.50
15384;DHT22;7790;53.022;12.968;2024-03-08T09:16:57;23.00;37.60
15384;DHT22;7790;53.022;12.968;2024-03-08T09:20:59;23.00;37.60
15384;DHT22;7790;53.022;12.968;2024-03-08T09:25:00;22.90;37.60
15384;DHT22;7790;53.022;12.968;2024-03-08T09:29:01;22.90;37.70
15384;DHT22;7790;53.022;12.968;2024-03-08T09:33:02;22.90;37.60
15384;DHT22;7790;53.022;12.968;2024-03-08T09:37:03;23.00;37.70
15384;DHT22;7790;53.022;12.968;2024-03-08T09:41:05;23.00;37.70
15384;DHT22;7790;53.022;12.968;2024-03-08T09:45:09;23.00;37.70
15384;DHT22;7790;53.022;12.968;2024-03-08T09:49:16;23.00;37.80
15384;DHT22;7790;53.022;12.968;2024-03-08T09:53:17;22.90;37.90
15384;DHT22;7790;53.022;12.968;2024-03-08T09:57:18;22.80;37.90
15384;DHT22;7790;53.022;12.968;2024-03-08T10:01:20;22.80;38.20
15384;DHT22;7790;53.022;12.968;2024-03-08T10:05:22;22.70;38.20
15384;DHT22;7790;53.022;12.968;2024-03-08T10:09:23;22.70;38.20
15384;DHT22;7790;53.022;12.968;2024-03-08T10:13:26;22.70;38.20
15384;DHT22;7790;53.022;12.968;2024-03-08T10:17:28;22.60;38.30
15384;DHT22;7790;53.022;12.968;2024-03-08T10:21:33;22.60;38.40
15384;DHT22;7790;53.022;12.968;2024-03-08T10:25:35;22.50;38.50
15384;DHT22;7790;53.022;12.968;2024-03-08T10:29:36;22.50;38.60
15384;DHT22;7790;53.022;12.968;2024-03-08T10:33:38;22.60;38.50
15384;DHT22;7790;53.022;12.968;2024-03-08T10:37:46;22.60;38.50
15384;DHT22;7790;53.022;12.968;2024-03-08T10:41:53;22.70;38.50
15384;DHT22;7790;53.022;12.968;2024-03-08T10:46:34;22.70;38.40
15384;DHT22;7790;53.022;12.968;2024-03-08T10:50:38;22.80;38.40
15384;DHT22;7790;53.022;12.968;2024-03-08T10:54:41;22.80;38.30
15384;DHT22;7790;53.022;12.968;2024-03-08T10:58:44;22.80;38.40
15384;DHT22;7790;53.022;12.968;2024-03-08T11:02:46;22.80;38.30
15384;DHT22;7790;53.022;12.968;2024-03-08T11:06:50;22.80;38.40
15384;DHT22;7790;53.022;12.968;2024-03-08T11:10:54;22.90;38.50
15384;DHT22;7790;53.022;12.968;2024-03-08T11:15:00;22.80;38.30
15384;DHT22;7790;53.022;12.968;2024-03-08T11:23:11;22.90;38.40
15384;DHT22;7790;53.022;12.968;2024-03-08T11:27:12;22.90;38.40
15384;DHT22;7790;53.022;12.968;2024-03-08T11:31:23;22.90;38.50
15384;DHT22;7790;53.022;12.968;2024-03-08T11:35:25;22.80;38.50
15384;DHT22;7790;53.022;12.968;2024-03-08T11:39:26;22.70;38.50
15384;DHT22;7790;53.022;12.968;2024-03-08T11:43:29;22.60;38.70
15384;DHT22;7790;53.022;12.968;2024-03-08T11:47:30;22.60;38.70
15384;DHT22;7790;53.022;12.968;2024-03-08T11:51:32;22.60;38.60
15384;DHT22;7790;53.022;12.968;2024-03-08T11:55:33;22.50;38.60
15384;DHT22;7790;53.022;12.968;2024-03-08T11:59:36;22.40;38.70
15384;DHT22;7790;53.022;12.968;2024-03-08T12:03:41;22.40;38.60
15384;DHT22;7790;53.022;12.968;2024-03-08T12:07:56;22.30;38.80
15384;DHT22;7790;53.022;12.968;2024-03-08T12:11:58;22.40;38.90
15384;DHT22;7790;53.022;12.968;2024-03-08T12:16:03;22.40;38.80
15384;DHT22;7790;53.022;12.968;2024-03-08T12:20:18;22.40;38.80
15384;DHT22;7790;53.022;12.968;2024-03-08T12:24:22;22.40;38.70
15384;DHT22;7790;53.022;12.968;2024-03-08T12:28:24;22.50;38.70
15384;DHT22;7790;53.022;12.968;2024-03-08T12:32:27;22.50;38.70
15384;DHT22;7790;53.022;12.968;2024-03-08T12:36:27;22.50;38.60
15384;DHT22;7790;53.022;12.968;2024-03-08T12:40:30;22.50;38.70
15384;DHT22;7790;53.022;12.968;2024-03-08T12:44:32;22.50;38.70
15384;DHT22;7790;53.022;12.968;2024-03-08T12:48:35;22.50;38.60
15384;DHT22;7790;53.022;12.968;2024-03-08T12:52:40;22.50;38.70
15384;DHT22;7790;53.022;12.968;2024-03-08T12:56:41;22.60;38.60
15384;DHT22;7790;53.022;12.968;2024-03-08T13:00:42;22.70;38.60
15384;DHT22;7790;53.022;12.968;2024-03-08T13:04:44;22.70;38.60
15384;DHT22;7790;53.022;12.968;2024-03-08T13:08:45;22.70;38.60
15384;DHT22;7790;53.022;12.968;2024-03-08T13:12:45;22.70;38.60
15384;DHT22;7790;53.022;12.968;2024-03-08T13:16:47;22.70;38.70
15384;DHT22;7790;53.022;12.968;2024-03-08T13:20:48;22.60;38.60
15384;DHT22;7790;53.022;12.968;2024-03-08T13:24:52;22.70;38.70
15384;DHT22;7790;53.022;12.968;2024-03-08T13:28:53;22.70;38.60
15384;DHT22;7790;53.022;12.968;2024-03-08T13:32:54;22.60;38.60
15384;DHT22;7790;53.022;12.968;2024-03-08T13:36:55;22.60;38.70
15384;DHT22;7790;53.022;12.968;2024-03-08T13:41:01;22.60;38.70
15384;DHT22;7790;53.022;12.968;2024-03-08T13:45:04;22.50;38.80
15384;DHT22;7790;53.022;12.968;2024-03-08T13:49:05;22.50;38.80
15384;DHT22;7790;53.022;12.968;2024-03-08T13:53:08;22.40;38.90
15384;DHT22;7790;53.022;12.968;2024-03-08T13:57:10;22.30;38.90
15384;DHT22;7790;53.022;12.968;2024-03-08T14:01:11;22.30;38.90
15384;DHT22;7790;53.022;12.968;2024-03-08T14:05:12;22.40;38.80
15384;DHT22;7790;53.022;12.968;2024-03-08T14:09:14;22.40;38.80
15384;DHT22;7790;53.022;12.968;2024-03-08T14:13:17;22.40;38.80
15384;DHT22;7790;53.022;12.968;2024-03-08T14:17:19;22.40;38.80
15384;DHT22;7790;53.022;12.968;2024-03-08T14:21:20;22.50;38.80
15384;DHT22;7790;53.022;12.968;2024-03-08T14:25:21;22.50;38.80
15384;DHT22;7790;53.022;12.968;2024-03-08T14:29:25;22.60;38.80
15384;DHT22;7790;53.022;12.968;2024-03-08T14:33:29;22.50;38.80
15384;DHT22;7790;53.022;12.968;2024-03-08T14:37:30;22.50;38.90
15384;DHT22;7790;53.022;12.968;2024-03-08T14:41:31;22.50;38.80
15384;DHT22;7790;53.022;12.968;2024-03-08T14:45:32;22.50;38.80
15384;DHT22;7790;53.022;12.968;2024-03-08T14:49:33;22.60;38.90
15384;DHT22;7790;53.022;12.968;2024-03-08T14:53:37;22.50;38.90
15384;DHT22;7790;53.022;12.968;2024-03-08T14:57:41;22.50;38.90
15384;DHT22;7790;53.022;12.968;2024-03-08T15:01:42;22.60;38.90
15384;DHT22;7790;53.022;12.968;2024-03-08T15:05:43;22.50;38.90
15384;DHT22;7790;53.022;12.968;2024-03-08T15:09:48;22.60;39.00
15384;DHT22;7790;53.022;12.968;2024-03-08T15:13:48;22.70;38.80
15384;DHT22;7790;53.022;12.968;2024-03-08T15:17:52;22.60;39.00
15384;DHT22;7790;53.022;12.968;2024-03-08T15:21:54;22.60;39.00
15384;DHT22;7790;53.022;12.968;2024-03-08T15:25:57;22.70;39.00
15384;DHT22;7790;53.022;12.968;2024-03-08T15:29:58;22.70;39.00
15384;DHT22;7790;53.022;12.968;2024-03-08T15:33:59;22.70;39.00
15384;DHT22;7790;53.022;12.968;2024-03-08T15:38:07;22.70;39.00
15384;DHT22;7790;53.022;12.968;2024-03-08T15:42:08;22.70;39.00
15384;DHT22;7790;53.022;12.968;2024-03-08T15:46:11;22.70;39.00
15384;DHT22;7790;53.022;12.968;2024-03-08T15:50:13;22.70;39.00
15384;DHT22;7790;53.022;12.968;2024-03-08T15:54:15;22.70;39.00
15384;DHT22;7790;53.022;12.968;2024-03-08T15:58:16;22.70;39.00
15384;DHT22;7790;53.022;12.968;2024-03-08T16:02:17;22.70;39.00
15384;DHT22;7790;53.022;12.968;2024-03-08T16:06:19;22.70;39.10
15384;DHT22;7790;53.022;12.968;2024-03-08T16:10:23;22.90;38.70
15384;DHT22;7790;53.022;12.968;2024-03-08T16:14:24;22.80;38.90
15384;DHT22;7790;53.022;12.968;2024-03-08T16:18:25;22.70;39.00
15384;DHT22;7790;53.022;12.968;2024-03-08T16:22:25;22.70;39.00
15384;DHT22;7790;53.022;12.968;2024-03-08T16:26:27;22.70;39.10
15384;DHT22;7790;53.022;12.968;2024-03-08T16:30:29;22.70;39.10
15384;DHT22;7790;53.022;12.968;2024-03-08T16:34:32;22.70;39.10
15384;DHT22;7790;53.022;12.968;2024-03-08T16:38:35;22.70;39.10
15384;DHT22;7790;53.022;12.968;2024-03-08T16:42:38;22.70;39.20
15384;DHT22;7790;53.022;12.968;2024-03-08T16:46:40;22.70;39.20
15384;DHT22;7790;53.022;12.968;2024-03-08T16:50:42;22.70;39.30
15384;DHT22;7790;53.022;12.968;2024-03-08T16:54:45;22.70;39.30
15384;DHT22;7790;53.022;12.968;2024-03-08T16:58:46;22.70;39.20
15384;DHT22;7790;53.022;12.968;2024-03-08T17:02:48;22.70;39.20
15384;DHT22;7790;53.022;12.968;2024-03-08T17:06:50;22.70;39.20
15384;DHT22;7790;53.022;12.968;2024-03-08T17:10:51;22.70;39.10
15384;DHT22;7790;53.022;12.968;2024-03-08T17:14:52;22.60;39.10
15384;DHT22;7790;53.022;12.968;2024-03-08T17:18:52;22.60;39.20
15384;DHT22;7790;53.022;12.968;2024-03-08T17:22:56;22.60;39.20
15384;DHT22;7790;53.022;12.968;2024-03-08T17:26:56;22.60;39.20
15384;DHT22;7790;53.022;12.968;2024-03-08T17:30:58;22.90;39.00
15384;DHT22;7790;53.022;12.968;2024-03-08T17:34:59;22.70;39.00
15384;DHT22;7790;53.022;12.968;2024-03-08T17:39:01;22.70;39.00
15384;DHT22;7790;53.022;12.968;2024-03-08T17:43:04;22.70;39.50
15384;DHT22;7790;53.022;12.968;2024-03-08T17:47:07;22.70;38.90
15384;DHT22;7790;53.022;12.968;2024-03-08T17:51:08;22.70;38.80
15384;DHT22;7790;53.022;12.968;2024-03-08T17:55:10;22.70;38.80
15384;DHT22;7790;53.022;12.968;2024-03-08T17:59:14;22.70;38.80
15384;DHT22;7790;53.022;12.968;2024-03-08T18:03:15;22.70;38.80
15384;DHT22;7790;53.022;12.968;2024-03-08T18:07:18;22.70;38.80
15384;DHT22;7790;53.022;12.968;2024-03-08T18:11:19;22.70;38.80
15384;DHT22;7790;53.022;12.968;2024-03-08T18:15:22;22.70;38.80
15384;DHT22;7790;53.022;12.968;2024-03-08T18:19:26;22.70;38.70
15384;DHT22;7790;53.022;12.968;2024-03-08T18:23:27;22.70;38.70
15384;DHT22;7790;53.022;12.968;2024-03-08T18:27:29;22.70;38.70
15384;DHT22;7790;53.022;12.968;2024-03-08T18:31:30;22.70;38.70
15384;DHT22;7790;53.022;12.968;2024-03-08T18:35:31;22.70;38.70
15384;DHT22;7790;53.022;12.968;2024-03-08T18:39:32;22.70;38.70
15384;DHT22;7790;53.022;12.968;2024-03-08T18:43:33;22.70;38.70
15384;DHT22;7790;53.022;12.968;2024-03-08T18:47:34;22.60;38.70
15384;DHT22;7790;53.022;12.968;2024-03-08T18:51:35;22.70;38.70
15384;DHT22;7790;53.022;12.968;2024-03-08T18:55:36;22.70;38.70
15384;DHT22;7790;53.022;12.968;2024-03-08T18:59:37;22.70;38.60
15384;DHT22;7790;53.022;12.968;2024-03-08T19:03:39;22.70;38.60
15384;DHT22;7790;53.022;12.968;2024-03-08T19:07:43;22.70;38.60
15384;DHT22;7790;53.022;12.968;2024-03-08T19:11:43;22.70;38.50
15384;DHT22;7790;53.022;12.968;2024-03-08T19:15:44;22.70;38.50
15384;DHT22;7790;53.022;12.968;2024-03-08T19:19:46;22.70;38.60
15384;DHT22;7790;53.022;12.968;2024-03-08T19:23:47;22.70;38.50
15384;DHT22;7790;53.022;12.968;2024-03-08T19:27:48;22.80;38.50
15384;DHT22;7790;53.022;12.968;2024-03-08T19:31:51;22.70;38.40
15384;DHT22;7790;53.022;12.968;2024-03-08T19:35:52;22.70;38.50
15384;DHT22;7790;53.022;12.968;2024-03-08T19:39:52;22.80;38.90
15384;DHT22;7790;53.022;12.968;2024-03-08T19:43:54;22.90;38.90
15384;DHT22;7790;53.022;12.968;2024-03-08T19:47:59;23.10;39.20
15384;DHT22;7790;53.022;12.968;2024-03-08T19:52:01;23.10;38.80
15384;DHT22;7790;53.022;12.968;2024-03-08T19:56:04;23.20;38.70
15384;DHT22;7790;53.022;12.968;2024-03-08T20:00:09;23.20;38.30
15384;DHT22;7790;53.022;12.968;2024-03-08T20:04:14;23.20;38.50
15384;DHT22;7790;53.022;12.968;2024-03-08T20:08:16;23.10;38.50
15384;DHT22;7790;53.022;12.968;2024-03-08T20:12:19;23.10;38.50
15384;DHT22;7790;53.022;12.968;2024-03-08T20:16:20;23.10;38.40
15384;DHT22;7790;53.022;12.968;2024-03-08T20:20:22;23.00;38.40
15384;DHT22;7790;53.022;12.968;2024-03-08T20:24:23;23.10;38.50
15384;DHT22;7790;53.022;12.968;2024-03-08T20:28:24;23.00;38.40
15384;DHT22;7790;53.022;12.968;2024-03-08T20:32:25;23.00;38.50
15384;DHT22;7790;53.022;12.968;2024-03-08T20:36:26;23.10;38.50
15384;DHT22;7790;53.022;12.968;2024-03-08T20:40:29;23.00;38.60
15384;DHT22;7790;53.022;12.968;2024-03-08T20:44:47;23.00;38.60
15384;DHT22;7790;53.022;12.968;2024-03-08T20:48:48;23.00;38.60
15384;DHT22;7790;53.022;12.968;2024-03-08T20:52:50;23.00;38.60
15384;DHT22;7790;53.022;12.968;2024-03-08T20:56:53;23.00;38.50
15384;DHT22;7790;53.022;12.968;2024-03-08T21:00:54;23.00;38.60
15384;DHT22;7790;53.022;12.968;2024-03-08T21:04:55;22.90;38.50
15384;DHT22;7790;53.022;12.968;2024-03-08T21:08:56;22.90;38.70
15384;DHT22;7790;53.022;12.968;2024-03-08T21:12:57;22.80;38.70
15384;DHT22;7790;53.022;12.968;2024-03-08T21:16:59;22.70;38.80
15384;DHT22;7790;53.022;12.968;2024-03-08T21:21:00;22.70;38.90
15384;DHT22;7790;53.022;12.968;2024-03-08T21:25:01;22.70;38.80
15384;DHT22;7790;53.022;12.968;2024-03-08T21:29:04;22.70;38.70
15384;DHT22;7790;53.022;12.968;2024-03-08T21:33:05;22.70;38.60
15384;DHT22;7790;53.022;12.968;2024-03-08T21:37:09;22.70;38.60
15384;DHT22;7790;53.022;12.968;2024-03-08T21:41:11;22.80;38.50
15384;DHT22;7790;53.022;12.968;2024-03-08T21:45:13;22.80;38.50
15384;DHT22;7790;53.022;12.968;2024-03-08T21:49:23;22.80;38.40
15384;DHT22;7790;53.022;12.968;2024-03-08T21:53:24;22.80;38.30
15384;DHT22;7790;53.022;12.968;2024-03-08T21:57:24;22.80;38.30
15384;DHT22;7790;53.022;12.968;2024-03-08T22:01:25;22.90;38.20
15384;DHT22;7790;53.022;12.968;2024-03-08T22:05:26;22.90;38.30
15384;DHT22;7790;53.022;12.968;2024-03-08T22:09:27;22.90;38.30
15384;DHT22;7790;53.022;12.968;2024-03-08T22:13:28;22.80;38.20
15384;DHT22;7790;53.022;12.968;2024-03-08T22:17:30;22.80;38.20
15384;DHT22;7790;53.022;12.968;2024-03-08T22:21:31;22.80;38.10
15384;DHT22;7790;53.022;12.968;2024-03-08T22:25:33;22.80;38.10
15384;DHT22;7790;53.022;12.968;2024-03-08T22:29:34;22.80;38.00
15384;DHT22;7790;53.022;12.968;2024-03-08T22:33:35;22.80;38.00
15384;DHT22;7790;53.022;12.968;2024-03-08T22:37:36;22.90;37.90
15384;DHT22;7790;53.022;12.968;2024-03-08T22:41:37;22.90;37.90
15384;DHT22;7790;53.022;12.968;2024-03-08T22:45:38;22.90;37.90
15384;DHT22;7790;53.022;12.968;2024-03-08T22:49:39;22.90;37.90
15384;DHT22;7790;53.022;12.968;2024-03-08T22:53:39;22.80;37.80
15384;DHT22;7790;53.022;12.968;2024-03-08T22:57:42;22.90;37.90
15384;DHT22;7790;53.022;12.968;2024-03-08T23:01:43;22.90;37.90
15384;DHT22;7790;53.022;12.968;2024-03-08T23:05:46;22.90;37.90
15384;DHT22;7790;53.022;12.968;2024-03-08T23:09:47;22.90;37.70
15384;DHT22;7790;53.022;12.968;2024-03-08T23:13:47;22.90;37.70
15384;DHT22;7790;53.022;12.968;2024-03-08T23:17:48;22.90;37.70
15384;DHT22;7790;53.022;12.968;2024-03-08T23:21:50;22.90;37.70
15384;DHT22;7790;53.022;12.968;2024-03-08T23:25:51;22.90;37.50
15384;DHT22;7790;53.022;12.968;2024-03-08T23:29:52;22.80;37.70
15384;DHT22;7790;53.022;12.968;2024-03-08T23:33:53;22.80;37.70
15384;DHT22;7790;53.022;12.968;2024-03-08T23:37:54;22.70;37.80
15384;DHT22;7790;53.022;12.968;2024-03-08T23:41:55;22.70;37.80
15384;DHT22;7790;53.022;12.968;2024-03-08T23:45:56;22.70;37.70
15384;DHT22;7790;53.022;12.968;2024-03-08T23:49:57;22.70;37.70
15384;DHT22;7790;53.022;12.968;2024-03-08T23:53:59;22.70;37.70
15384;DHT22;7790;53.022;12.968;2024-03-08T23:58:04;22.70;37.60
